createdAt,value
2017-06-21T00:00:56.579Z,15.78
2017-06-21T00:10:56.586Z,15.72
2017-06-21T00:20:56.665Z,15.61
2017-06-21T00:30:56.656Z,15.48
2017-06-21T00:40:56.714Z,15.23
2017-06-21T00:50:57.553Z,15.01
2017-06-21T01:00:57.527Z,14.84
2017-06-21T01:10:57.480Z,14.54
2017-06-21T01:20:56.576Z,14.47
2017-06-21T01:30:56.518Z,14.39
2017-06-21T01:40:57.476Z,14.34
2017-06-21T01:50:56.547Z,14.2
2017-06-21T02:01:00.260Z,14.1
2017-06-21T02:10:56.513Z,14.09
2017-06-21T02:20:56.735Z,13.94
2017-06-21T02:30:57.624Z,13.71
2017-06-21T02:40:58.473Z,13.62
2017-06-21T02:50:56.512Z,13.44
2017-06-21T03:00:56.479Z,13.47
2017-06-21T03:10:56.538Z,13.51
2017-06-21T03:20:56.460Z,13.62
2017-06-21T03:30:56.606Z,13.71
2017-06-21T03:40:56.512Z,13.65
2017-06-21T03:50:56.473Z,13.81
2017-06-21T04:00:56.528Z,13.96
2017-06-21T04:10:56.496Z,14.17
2017-06-21T04:20:56.441Z,14.31
2017-06-21T04:30:56.538Z,14.69
2017-06-21T04:40:56.455Z,14.91
2017-06-21T04:50:56.573Z,15.21
2017-06-21T05:00:56.509Z,16.41
2017-06-21T05:10:56.468Z,17.91
2017-06-21T05:20:56.546Z,18.68
2017-06-21T05:30:56.477Z,17.73
2017-06-21T05:40:56.559Z,17.69
2017-06-21T05:50:56.518Z,20.16
2017-06-21T06:00:56.601Z,22.04
2017-06-21T06:10:56.551Z,22.87
2017-06-21T06:20:56.637Z,25.83
2017-06-21T06:30:56.793Z,27.1
2017-06-21T06:40:56.736Z,29.13
2017-06-21T06:50:56.623Z,29.89
2017-06-21T07:00:56.534Z,30.02
2017-06-21T07:10:56.503Z,31.35
2017-06-21T07:20:59.959Z,31.53
2017-06-21T07:30:56.508Z,32.48
2017-06-21T07:40:56.562Z,34.39
2017-06-21T07:50:56.527Z,34.88
2017-06-21T08:00:56.607Z,36.94
2017-06-21T08:10:56.559Z,38.38
2017-06-21T08:20:56.604Z,38.8
2017-06-21T08:30:56.579Z,38.34
2017-06-21T08:40:56.543Z,37.81
2017-06-21T08:50:56.714Z,37.62
2017-06-21T09:00:56.550Z,37.54
2017-06-21T09:10:56.675Z,37.02
2017-06-21T09:20:56.611Z,32.17
2017-06-21T09:30:56.569Z,29.38
2017-06-21T09:40:56.614Z,28.19
2017-06-21T09:50:56.585Z,27.62
2017-06-21T10:00:56.611Z,27.1
2017-06-21T10:10:56.611Z,27.31
2017-06-21T10:20:56.765Z,27.35
2017-06-21T10:30:56.553Z,27.41
2017-06-21T10:40:56.527Z,27.74
2017-06-21T10:50:56.559Z,27.95
2017-06-21T11:00:56.644Z,28.16
2017-06-21T11:10:56.543Z,28.04
2017-06-21T11:20:56.568Z,28.03
2017-06-21T11:30:56.572Z,27.98
2017-06-21T11:40:56.649Z,27.88
2017-06-21T11:50:56.601Z,28.04
2017-06-21T12:00:56.668Z,28.19
2017-06-21T12:10:56.619Z,28.33
2017-06-21T12:20:56.591Z,28.22
2017-06-21T12:30:56.954Z,28.03
2017-06-21T12:40:56.630Z,28.28
2017-06-21T12:50:57.655Z,28.35
2017-06-21T13:00:56.637Z,28.51
2017-06-21T13:10:56.640Z,28.58
2017-06-21T13:20:56.601Z,28.6
2017-06-21T13:30:56.669Z,28.5
2017-06-21T13:40:56.648Z,28.65
2017-06-21T13:50:56.600Z,28.62
2017-06-21T14:00:56.699Z,28.59
2017-06-21T14:10:56.783Z,28.77
2017-06-21T14:20:56.703Z,28.88
2017-06-21T14:30:56.681Z,28.93
2017-06-21T14:40:56.652Z,28.87
2017-06-21T14:50:56.726Z,28.96
2017-06-21T15:00:56.652Z,28.88
2017-06-21T15:10:56.630Z,28.85
2017-06-21T15:20:56.633Z,28.88
2017-06-21T15:30:56.626Z,28.96
2017-06-21T15:40:56.625Z,29.15
2017-06-21T15:50:56.797Z,29.29
2017-06-21T16:00:56.633Z,29.15
2017-06-21T16:10:56.636Z,29.18
2017-06-21T16:20:56.630Z,29.11
2017-06-21T16:30:56.623Z,29.16
2017-06-21T16:40:56.643Z,29.04
2017-06-21T16:50:56.686Z,28.9
2017-06-21T17:00:56.661Z,28.68
2017-06-21T17:10:56.654Z,28.59
2017-06-21T17:20:56.633Z,28.43
2017-06-21T17:30:56.672Z,28.25
2017-06-21T17:40:56.667Z,28.06
2017-06-21T17:50:56.683Z,27.79
2017-06-21T18:00:57.088Z,27.51
2017-06-21T18:10:57.305Z,27.28
2017-06-21T18:20:56.644Z,26.98
2017-06-21T18:30:56.703Z,26.65
2017-06-21T18:40:56.670Z,26.44
2017-06-21T18:50:56.648Z,25.97
2017-06-21T19:00:56.660Z,25.47
2017-06-21T19:10:57.395Z,24.82
2017-06-21T19:20:56.726Z,24.37
2017-06-21T19:30:56.670Z,23.83
2017-06-21T19:40:56.790Z,23.7
2017-06-21T19:50:56.706Z,23.42
2017-06-21T20:00:57.057Z,22.87
2017-06-21T20:10:56.734Z,22.52
2017-06-21T20:20:56.703Z,22.41
2017-06-21T20:30:56.687Z,21.95
2017-06-21T20:40:56.787Z,21.6
2017-06-21T20:50:56.789Z,21.39
2017-06-21T21:00:56.722Z,21.11
2017-06-21T21:10:56.700Z,20.84
2017-06-21T21:20:56.767Z,20.69
2017-06-21T21:30:56.718Z,20.64
2017-06-21T21:40:56.787Z,20.46
2017-06-21T21:50:56.750Z,20.24
2017-06-21T22:00:56.683Z,19.94
2017-06-21T22:10:56.742Z,19.84
2017-06-21T22:20:56.718Z,19.63
2017-06-21T22:30:56.775Z,19.4
2017-06-21T22:40:56.813Z,19.24
2017-06-21T22:50:56.700Z,19.1
2017-06-21T23:00:56.753Z,19.15
2017-06-21T23:10:56.779Z,19.2
2017-06-21T23:20:56.681Z,19.35
2017-06-21T23:30:56.737Z,19.61
2017-06-21T23:40:56.778Z,19.94
2017-06-21T23:50:56.756Z,20.31
